sensor_id;sensor_type;location;lat;lon;timestamp;temperature;humidity
26049;DHT22;13822;51.568;5.086;2023-01-25T00:05:03;1.00;99.90
26049;DHT22;13822;51.568;5.086;2023-01-25T00:11:00;1.00;99.90
26049;DHT22;13822;51.568;5.086;2023-01-25T00:16:33;1.00;99.90
26049;DHT22;13822;51.568;5.086;2023-01-25T00:22:08;1.10;99.90
26049;DHT22;13822;51.568;5.086;2023-01-25T00:27:48;1.10;99.90
26049;DHT22;13822;51.568;5.086;2023-01-25T00:39:37;1.10;99.90
26049;DHT22;13822;51.568;5.086;2023-01-25T00:45:42;1.10;99.90
26049;DHT22;13822;51.568;5.086;2023-01-25T00:51:37;1.10;99.90
26049;DHT22;13822;51.568;5.086;2023-01-25T00:57:28;1.00;99.90
26049;DHT22;13822;51.568;5.086;2023-01-25T01:03:08;1.00;99.90
26049;DHT22;13822;51.568;5.086;2023-01-25T01:08:51;1.00;99.90
26049;DHT22;13822;51.568;5.086;2023-01-25T01:20:25;1.00;99.90
26049;DHT22;13822;51.568;5.086;2023-01-25T01:26:04;1.00;99.90
26049;DHT22;13822;51.568;5.086;2023-01-25T04:06:40;0.60;99.90
26049;DHT22;13822;51.568;5.086;2023-01-25T06:09:17;0.50;99.90
26049;DHT22;13822;51.568;5.086;2023-01-25T06:14:19;0.40;99.90
26049;DHT22;13822;51.568;5.086;2023-01-25T06:19:21;0.40;99.90
26049;DHT22;13822;51.568;5.086;2023-01-25T06:24:23;0.50;99.90
26049;DHT22;13822;51.568;5.086;2023-01-25T06:29:25;0.50;99.90
26049;DHT22;13822;51.568;5.086;2023-01-25T06:34:27;0.50;99.90
26049;DHT22;13822;51.568;5.086;2023-01-25T06:39:29;0.50;99.90
26049;DHT22;13822;51.568;5.086;2023-01-25T06:44:31;0.50;99.90
26049;DHT22;13822;51.568;5.086;2023-01-25T06:49:33;0.50;99.90
26049;DHT22;13822;51.568;5.086;2023-01-25T06:54:35;0.50;99.90
26049;DHT22;13822;51.568;5.086;2023-01-25T06:59:37;0.60;99.90
26049;DHT22;13822;51.568;5.086;2023-01-25T07:04:39;0.50;99.90
26049;DHT22;13822;51.568;5.086;2023-01-25T07:09:41;0.50;99.90
26049;DHT22;13822;51.568;5.086;2023-01-25T07:14:43;0.50;99.90
26049;DHT22;13822;51.568;5.086;2023-01-25T07:19:45;0.40;99.90
26049;DHT22;13822;51.568;5.086;2023-01-25T07:24:48;0.30;99.90
26049;DHT22;13822;51.568;5.086;2023-01-25T07:29:52;0.30;99.90
26049;DHT22;13822;51.568;5.086;2023-01-25T07:34:54;0.20;99.90
26049;DHT22;13822;51.568;5.086;2023-01-25T07:39:56;0.20;99.90
26049;DHT22;13822;51.568;5.086;2023-01-25T07:44:58;0.20;99.90
26049;DHT22;13822;51.568;5.086;2023-01-25T07:50:00;0.20;99.90
26049;DHT22;13822;51.568;5.086;2023-01-25T07:55:02;0.20;99.90
26049;DHT22;13822;51.568;5.086;2023-01-25T08:00:05;0.10;99.90
26049;DHT22;13822;51.568;5.086;2023-01-25T08:05:08;0.10;99.90
26049;DHT22;13822;51.568;5.086;2023-01-25T08:10:10;0.10;99.90
26049;DHT22;13822;51.568;5.086;2023-01-25T08:15:12;0.10;99.90
26049;DHT22;13822;51.568;5.086;2023-01-25T08:20:14;0.10;99.90
26049;DHT22;13822;51.568;5.086;2023-01-25T08:25:16;0.10;99.90
26049;DHT22;13822;51.568;5.086;2023-01-25T08:30:18;0.20;99.90
26049;DHT22;13822;51.568;5.086;2023-01-25T08:35:20;0.10;99.90
26049;DHT22;13822;51.568;5.086;2023-01-25T08:40:22;0.10;99.90
26049;DHT22;13822;51.568;5.086;2023-01-25T08:45:24;0.10;99.90
26049;DHT22;13822;51.568;5.086;2023-01-25T08:50:26;0.10;99.90
26049;DHT22;13822;51.568;5.086;2023-01-25T08:55:28;0.10;99.90
26049;DHT22;13822;51.568;5.086;2023-01-25T09:00:30;0.10;99.90
26049;DHT22;13822;51.568;5.086;2023-01-25T09:05:38;0.10;99.90
26049;DHT22;13822;51.568;5.086;2023-01-25T09:10:40;0.10;99.90
26049;DHT22;13822;51.568;5.086;2023-01-25T09:15:42;0.10;99.90
26049;DHT22;13822;51.568;5.086;2023-01-25T09:20:44;0.10;99.90
26049;DHT22;13822;51.568;5.086;2023-01-25T09:25:46;0.10;99.90
26049;DHT22;13822;51.568;5.086;2023-01-25T09:30:58;0.20;99.90
26049;DHT22;13822;51.568;5.086;2023-01-25T09:36:21;0.20;99.90
26049;DHT22;13822;51.568;5.086;2023-01-25T09:46:44;0.10;99.90
26049;DHT22;13822;51.568;5.086;2023-01-25T09:51:56;0.20;99.90
26049;DHT22;13822;51.568;5.086;2023-01-25T09:57:21;0.20;99.90
26049;DHT22;13822;51.568;5.086;2023-01-25T10:13:22;0.20;99.90
26049;DHT22;13822;51.568;5.086;2023-01-25T10:23:50;0.10;99.90
26049;DHT22;13822;51.568;5.086;2023-01-25T10:29:25;0.10;99.90
26049;DHT22;13822;51.568;5.086;2023-01-25T10:34:35;0.00;99.90
26049;DHT22;13822;51.568;5.086;2023-01-25T10:39:57;0.00;99.90
26049;DHT22;13822;51.568;5.086;2023-01-25T10:45:13;0.00;99.90
26049;DHT22;13822;51.568;5.086;2023-01-25T10:55:57;0.00;99.90
26049;DHT22;13822;51.568;5.086;2023-01-25T11:01:23;0.00;99.90
26049;DHT22;13822;51.568;5.086;2023-01-25T11:06:36;0.00;99.90
26049;DHT22;13822;51.568;5.086;2023-01-25T11:11:39;0.00;99.90
26049;DHT22;13822;51.568;5.086;2023-01-25T11:16:43;0.00;99.90
26049;DHT22;13822;51.568;5.086;2023-01-25T11:21:51;0.00;99.90
26049;DHT22;13822;51.568;5.086;2023-01-25T11:27:16;0.00;99.90
26049;DHT22;13822;51.568;5.086;2023-01-25T11:32:23;0.10;99.90
26049;DHT22;13822;51.568;5.086;2023-01-25T12:09:49;0.20;99.90
26049;DHT22;13822;51.568;5.086;2023-01-25T12:14:59;0.20;99.90
26049;DHT22;13822;51.568;5.086;2023-01-25T12:20:20;0.20;99.90
26049;DHT22;13822;51.568;5.086;2023-01-25T12:40:48;0.20;99.90
26049;DHT22;13822;51.568;5.086;2023-01-25T12:45:53;0.20;99.90
26049;DHT22;13822;51.568;5.086;2023-01-25T12:50:57;0.20;99.90
26049;DHT22;13822;51.568;5.086;2023-01-25T12:55:59;0.20;99.90
26049;DHT22;13822;51.568;5.086;2023-01-25T13:11:25;0.20;99.90
26049;DHT22;13822;51.568;5.086;2023-01-25T13:16:37;0.10;99.90
26049;DHT22;13822;51.568;5.086;2023-01-25T13:21:42;0.20;99.90
26049;DHT22;13822;51.568;5.086;2023-01-25T13:31:48;0.20;99.90
26049;DHT22;13822;51.568;5.086;2023-01-25T13:36:54;0.30;99.90
26049;DHT22;13822;51.568;5.086;2023-01-25T13:47:02;0.20;99.90
26049;DHT22;13822;51.568;5.086;2023-01-25T13:52:05;0.10;99.90
26049;DHT22;13822;51.568;5.086;2023-01-25T13:57:17;0.10;99.90
26049;DHT22;13822;51.568;5.086;2023-01-25T14:02:22;0.10;99.90
26049;DHT22;13822;51.568;5.086;2023-01-25T14:07:28;0.10;99.90
26049;DHT22;13822;51.568;5.086;2023-01-25T14:12:35;0.20;99.90
26049;DHT22;13822;51.568;5.086;2023-01-25T14:17:39;0.20;99.90
26049;DHT22;13822;51.568;5.086;2023-01-25T14:22:41;0.20;99.90
26049;DHT22;13822;51.568;5.086;2023-01-25T14:32:54;0.10;99.90
26049;DHT22;13822;51.568;5.086;2023-01-25T14:37:58;0.10;99.90
26049;DHT22;13822;51.568;5.086;2023-01-25T14:43:03;0.10;99.90
26049;DHT22;13822;51.568;5.086;2023-01-25T14:48:30;0.00;99.90
26049;DHT22;13822;51.568;5.086;2023-01-25T14:53:43;0.00;99.90
26049;DHT22;13822;51.568;5.086;2023-01-25T14:58:47;0.00;99.90
26049;DHT22;13822;51.568;5.086;2023-01-25T15:04:00;-0.10;99.90
26049;DHT22;13822;51.568;5.086;2023-01-25T15:09:02;0.00;99.90
26049;DHT22;13822;51.568;5.086;2023-01-25T15:14:13;0.00;99.90
26049;DHT22;13822;51.568;5.086;2023-01-25T15:19:20;0.00;99.90
26049;DHT22;13822;51.568;5.086;2023-01-25T15:24:24;0.00;99.90
26049;DHT22;13822;51.568;5.086;2023-01-25T15:29:27;-0.10;99.90
26049;DHT22;13822;51.568;5.086;2023-01-25T15:34:29;0.00;99.90
26049;DHT22;13822;51.568;5.086;2023-01-25T15:39:33;-0.10;99.90
26049;DHT22;13822;51.568;5.086;2023-01-25T15:44:35;-0.10;99.90
26049;DHT22;13822;51.568;5.086;2023-01-25T15:49:37;-0.10;99.90
26049;DHT22;13822;51.568;5.086;2023-01-25T15:54:40;-0.10;99.90
26049;DHT22;13822;51.568;5.086;2023-01-25T15:59:52;-0.10;99.90
26049;DHT22;13822;51.568;5.086;2023-01-25T16:04:56;-0.20;99.90
26049;DHT22;13822;51.568;5.086;2023-01-25T16:09:58;-0.20;99.90
26049;DHT22;13822;51.568;5.086;2023-01-25T16:15:00;-0.20;99.90
26049;DHT22;13822;51.568;5.086;2023-01-25T16:20:02;-0.30;99.90
26049;DHT22;13822;51.568;5.086;2023-01-25T16:25:04;-0.20;99.90
26049;DHT22;13822;51.568;5.086;2023-01-25T16:30:15;-0.30;99.90
26049;DHT22;13822;51.568;5.086;2023-01-25T16:35:20;-0.30;99.90
26049;DHT22;13822;51.568;5.086;2023-01-25T16:45:29;-0.20;99.90
26049;DHT22;13822;51.568;5.086;2023-01-25T17:25:10;-0.10;99.90
26049;DHT22;13822;51.568;5.086;2023-01-25T21:32:18;-0.10;99.90
